• Join FlightAware (Why Join?)
  • Login
  • US Flag 
04:40AM EDT


 

Airport Tracker/Info


-or-


 

Live Flight TrackerFlight Track Log ✈ QXE2079 ✈ 30-Aug-2013 ✈ KALW - KSEA

Flight Track Log - Related Links

Times and Time Zones

All times are in EDT time to prevent confusion due to time zone crossing. See the QXE2079 flight status page for this flight to view local times or setup timezone preferences in your user account.

Time Position Orientation Groundspeed Altitude Reporting Facility
EDT Latitude Longitude Course Direction KTS MPH feet Rate Location/Type
05:22PM 46.2202 -118.9272 287° West  Level FlightAware Approximate
05:23PM 46.2432 -119.0348 287° West  Level FlightAware Approximate
05:24PM 46.2609 -119.1433 290° West  Level FlightAware Approximate
05:25PM 46.2875 -119.2493 290° West  Level FlightAware Approximate
05:26PM 46.3140 -119.3554 290° West  Level FlightAware Approximate
05:27PM 46.3355 -119.4630 284° West  Level FlightAware Approximate
05:28PM 46.3555 -119.5720 290° West  Level FlightAware Approximate
05:29PM 46.3820 -119.6782 290° West  Level FlightAware Approximate
05:30PM 46.4130 -119.7819 294° West  Level FlightAware Approximate
05:31PM 46.4396 -119.8878 284° West  Level FlightAware Approximate
05:32PM 46.4613 -119.9963 290° West  Level FlightAware Approximate
05:33PM 46.4872 -120.1030 289° West  Level FlightAware Approximate
05:34PM 46.5131 -120.2099 289° West  Level FlightAware Approximate
05:35PM 46.5388 -120.3168 289° West  Level FlightAware Approximate
05:36PM 46.5644 -120.4238 289° West  Level FlightAware Approximate
05:37PM 46.6007 -120.5240 299° West  Level FlightAware Approximate
05:38PM 46.6477 -120.6133 314° West  Level FlightAware Approximate
05:39PM 46.6896 -120.7090 302° West  Level FlightAware Approximate
05:40PM 46.7326 -120.8037 302° West  Level FlightAware Approximate
05:41PM 46.7747 -120.8994 306° West  Level FlightAware Approximate
05:42PM 46.8207 -120.9913 306° West  Level FlightAware Approximate
05:43PM 46.8654 -121.0845 303° West  Level FlightAware Approximate
05:44PM 46.9080 -121.1801 303° West  Level FlightAware Approximate
05:45PM 46.9505 -121.2758 303° West  Level FlightAware Approximate
05:46PM 47.0005 -121.3511 303° West  Level FlightAware Approximate
05:47PM 47.0431 -121.4468 303° West  Level FlightAware Approximate
05:48PM 47.0786 -121.5479 290° West  Level FlightAware Approximate
05:49PM 47.1247 -121.6390 310° West  Level FlightAware Approximate
05:50PM 47.1661 -121.7322 306° West  Level FlightAware Approximate
05:51PM 47.2170 -121.8175 301° West  Level FlightAware Approximate
05:52PM 47.2566 -121.9164 301° West  Level FlightAware Approximate
05:53PM 47.2944 -122.0167 296° West  Level FlightAware Approximate
05:54PM 47.3412 -122.1069 296° West  Level FlightAware Approximate
05:55PM 47.3845 -122.2022 306° West  Level FlightAware Approximate
05:56PM 47.4308 -122.2949 306° West  Level FlightAware Approximate
05:57PM 47.4333 -122.3000 306° West  Level FlightAware Approximate
05:58PM 47.4499 -122.3118 306° West  Level Estimated
05:59PM 47.4499 -122.3118 306° West  Level Estimated
06:00PM 47.4499 -122.3118 306° West  Level Estimated
06:01PM 47.4499 -122.3118 306° West  Level Estimated
06:02PM 47.4499 -122.3118 306° West  Level Estimated
06:03PM 47.4499 -122.3118 306° West  Level Estimated
06:04PM 47.4499 -122.3118 306° West  Level Estimated
06:05PM 47.4499 -122.3118 306° West  Level Estimated
06:06PM 47.4499 -122.3118 306° West  Level Estimated
06:07PM 47.4499 -122.3118 306° West  Level Estimated
06:08PM 47.4499 -122.3118 306° West  Level Estimated
06:09PM 47.4499 -122.3118 306° West  Level Estimated
06:10PM 47.4499 -122.3118 306° West  Level Estimated
06:11PM 47.4499 -122.3118 306° West  Level Estimated
06:12PM 47.4499 -122.3118 306° West  Level Estimated
06:13PM 47.4499 -122.3118 306° West  Level Estimated
06:14PM 47.4499 -122.3118 306° West  Level Estimated
06:15PM 47.4499 -122.3118 306° West  Level Estimated